sensor_id;sensor_type;location;lat;lon;timestamp;P1;durP1;ratioP1;P2;durP2;ratioP2
13943;SDS011;7044;53.286;8.534;2022-11-24T00:01:29;3.00;;;2.13;;
13943;SDS011;7044;53.286;8.534;2022-11-24T00:03:57;3.87;;;2.70;;
13943;SDS011;7044;53.286;8.534;2022-11-24T00:06:27;2.30;;;2.10;;
13943;SDS011;7044;53.286;8.534;2022-11-24T00:08:55;4.60;;;2.23;;
13943;SDS011;7044;53.286;8.534;2022-11-24T00:11:22;8.07;;;2.53;;
13943;SDS011;7044;53.286;8.534;2022-11-24T00:13:50;7.73;;;2.10;;
13943;SDS011;7044;53.286;8.534;2022-11-24T00:16:18;4.00;;;2.67;;
13943;SDS011;7044;53.286;8.534;2022-11-24T00:18:47;5.10;;;2.40;;
13943;SDS011;7044;53.286;8.534;2022-11-24T00:21:16;3.10;;;2.20;;
13943;SDS011;7044;53.286;8.534;2022-11-24T00:23:45;7.30;;;2.50;;
13943;SDS011;7044;53.286;8.534;2022-11-24T00:26:12;4.73;;;2.17;;
13943;SDS011;7044;53.286;8.534;2022-11-24T00:28:41;3.43;;;2.43;;
13943;SDS011;7044;53.286;8.534;2022-11-24T00:31:16;6.27;;;2.40;;
13943;SDS011;7044;53.286;8.534;2022-11-24T00:33:44;5.83;;;2.00;;
13943;SDS011;7044;53.286;8.534;2022-11-24T00:36:12;4.50;;;2.53;;
13943;SDS011;7044;53.286;8.534;2022-11-24T00:38:39;5.70;;;2.57;;
13943;SDS011;7044;53.286;8.534;2022-11-24T00:41:07;3.90;;;2.40;;
13943;SDS011;7044;53.286;8.534;2022-11-24T00:43:35;2.73;;;2.10;;
13943;SDS011;7044;53.286;8.534;2022-11-24T00:46:01;12.10;;;2.80;;
13943;SDS011;7044;53.286;8.534;2022-11-24T00:48:29;4.47;;;2.77;;
13943;SDS011;7044;53.286;8.534;2022-11-24T00:50:56;6.03;;;2.67;;
13943;SDS011;7044;53.286;8.534;2022-11-24T00:53:25;3.23;;;2.30;;
13943;SDS011;7044;53.286;8.534;2022-11-24T00:55:52;6.33;;;2.73;;
13943;SDS011;7044;53.286;8.534;2022-11-24T00:58:21;4.40;;;2.47;;
13943;SDS011;7044;53.286;8.534;2022-11-24T01:00:49;3.13;;;2.40;;
13943;SDS011;7044;53.286;8.534;2022-11-24T01:03:17;8.50;;;2.60;;
13943;SDS011;7044;53.286;8.534;2022-11-24T01:05:44;3.57;;;2.47;;
13943;SDS011;7044;53.286;8.534;2022-11-24T01:08:11;5.10;;;2.60;;
13943;SDS011;7044;53.286;8.534;2022-11-24T01:10:39;5.80;;;2.90;;
13943;SDS011;7044;53.286;8.534;2022-11-24T01:13:05;5.57;;;3.07;;
13943;SDS011;7044;53.286;8.534;2022-11-24T01:15:35;3.93;;;2.53;;
13943;SDS011;7044;53.286;8.534;2022-11-24T01:18:02;5.97;;;2.77;;
13943;SDS011;7044;53.286;8.534;2022-11-24T01:20:29;5.60;;;2.73;;
13943;SDS011;7044;53.286;8.534;2022-11-24T01:22:56;10.67;;;3.13;;
13943;SDS011;7044;53.286;8.534;2022-11-24T01:25:23;7.23;;;2.87;;
13943;SDS011;7044;53.286;8.534;2022-11-24T01:27:50;3.17;;;2.70;;
13943;SDS011;7044;53.286;8.534;2022-11-24T01:30:17;6.77;;;2.97;;
13943;SDS011;7044;53.286;8.534;2022-11-24T01:32:47;4.53;;;2.67;;
13943;SDS011;7044;53.286;8.534;2022-11-24T01:35:14;6.17;;;3.27;;
13943;SDS011;7044;53.286;8.534;2022-11-24T01:37:41;5.80;;;3.40;;
13943;SDS011;7044;53.286;8.534;2022-11-24T01:40:08;6.97;;;3.47;;
13943;SDS011;7044;53.286;8.534;2022-11-24T01:42:38;7.00;;;3.50;;
13943;SDS011;7044;53.286;8.534;2022-11-24T01:48:01;6.57;;;3.70;;
13943;SDS011;7044;53.286;8.534;2022-11-24T01:50:31;4.67;;;3.80;;
13943;SDS011;7044;53.286;8.534;2022-11-24T01:52:59;8.03;;;4.20;;
13943;SDS011;7044;53.286;8.534;2022-11-24T01:55:28;6.70;;;4.17;;
13943;SDS011;7044;53.286;8.534;2022-11-24T01:57:59;7.13;;;3.87;;
13943;SDS011;7044;53.286;8.534;2022-11-24T02:00:30;6.83;;;3.87;;
13943;SDS011;7044;53.286;8.534;2022-11-24T02:02:59;8.40;;;4.77;;
13943;SDS011;7044;53.286;8.534;2022-11-24T02:05:29;8.60;;;4.70;;
13943;SDS011;7044;53.286;8.534;2022-11-24T02:08:00;6.93;;;4.00;;
13943;SDS011;7044;53.286;8.534;2022-11-24T02:10:27;7.23;;;4.33;;
13943;SDS011;7044;53.286;8.534;2022-11-24T02:12:55;6.50;;;3.83;;
13943;SDS011;7044;53.286;8.534;2022-11-24T02:15:24;10.80;;;4.93;;
13943;SDS011;7044;53.286;8.534;2022-11-24T02:17:51;10.80;;;4.73;;
13943;SDS011;7044;53.286;8.534;2022-11-24T02:20:19;10.50;;;5.40;;
13943;SDS011;7044;53.286;8.534;2022-11-24T02:22:48;13.00;;;4.77;;
13943;SDS011;7044;53.286;8.534;2022-11-24T02:25:22;7.07;;;4.60;;
13943;SDS011;7044;53.286;8.534;2022-11-24T02:27:56;9.90;;;5.10;;
13943;SDS011;7044;53.286;8.534;2022-11-24T02:30:25;9.57;;;4.67;;
13943;SDS011;7044;53.286;8.534;2022-11-24T02:32:52;10.20;;;5.00;;
13943;SDS011;7044;53.286;8.534;2022-11-24T02:35:19;8.87;;;4.53;;
13943;SDS011;7044;53.286;8.534;2022-11-24T02:37:46;7.77;;;5.07;;
13943;SDS011;7044;53.286;8.534;2022-11-24T02:40:13;6.90;;;4.63;;
13943;SDS011;7044;53.286;8.534;2022-11-24T02:42:42;7.03;;;4.87;;
13943;SDS011;7044;53.286;8.534;2022-11-24T02:45:12;12.73;;;5.20;;
13943;SDS011;7044;53.286;8.534;2022-11-24T02:47:41;9.77;;;4.70;;
13943;SDS011;7044;53.286;8.534;2022-11-24T02:50:08;10.83;;;5.00;;
13943;SDS011;7044;53.286;8.534;2022-11-24T02:52:35;12.47;;;5.43;;
13943;SDS011;7044;53.286;8.534;2022-11-24T02:55:02;12.00;;;5.27;;
13943;SDS011;7044;53.286;8.534;2022-11-24T02:57:29;9.47;;;5.07;;
13943;SDS011;7044;53.286;8.534;2022-11-24T02:59:56;14.33;;;5.30;;
13943;SDS011;7044;53.286;8.534;2022-11-24T03:02:24;8.30;;;5.53;;
13943;SDS011;7044;53.286;8.534;2022-11-24T03:04:51;11.63;;;5.23;;
13943;SDS011;7044;53.286;8.534;2022-11-24T03:07:18;7.80;;;4.83;;
13943;SDS011;7044;53.286;8.534;2022-11-24T03:09:45;10.37;;;4.97;;
13943;SDS011;7044;53.286;8.534;2022-11-24T03:12:12;8.50;;;4.97;;
13943;SDS011;7044;53.286;8.534;2022-11-24T03:14:39;16.63;;;5.33;;
13943;SDS011;7044;53.286;8.534;2022-11-24T03:17:05;6.10;;;4.47;;
13943;SDS011;7044;53.286;8.534;2022-11-24T03:19:34;11.27;;;5.27;;
13943;SDS011;7044;53.286;8.534;2022-11-24T03:22:00;11.80;;;5.03;;
13943;SDS011;7044;53.286;8.534;2022-11-24T03:24:27;10.03;;;4.90;;
13943;SDS011;7044;53.286;8.534;2022-11-24T03:26:54;8.23;;;5.03;;
13943;SDS011;7044;53.286;8.534;2022-11-24T03:29:21;7.10;;;4.60;;
13943;SDS011;7044;53.286;8.534;2022-11-24T03:31:48;14.33;;;4.60;;
13943;SDS011;7044;53.286;8.534;2022-11-24T03:34:15;8.10;;;4.60;;
13943;SDS011;7044;53.286;8.534;2022-11-24T03:36:43;9.50;;;4.43;;
13943;SDS011;7044;53.286;8.534;2022-11-24T03:39:10;12.10;;;4.87;;
13943;SDS011;7044;53.286;8.534;2022-11-24T03:41:37;9.57;;;4.50;;
13943;SDS011;7044;53.286;8.534;2022-11-24T03:44:04;13.87;;;5.33;;
13943;SDS011;7044;53.286;8.534;2022-11-24T03:46:31;13.80;;;5.23;;
13943;SDS011;7044;53.286;8.534;2022-11-24T03:48:57;9.73;;;4.27;;
13943;SDS011;7044;53.286;8.534;2022-11-24T03:51:24;7.90;;;4.67;;
13943;SDS011;7044;53.286;8.534;2022-11-24T03:53:53;9.13;;;4.70;;
13943;SDS011;7044;53.286;8.534;2022-11-24T03:56:19;15.93;;;4.63;;
13943;SDS011;7044;53.286;8.534;2022-11-24T03:58:47;9.30;;;4.80;;
13943;SDS011;7044;53.286;8.534;2022-11-24T04:01:13;13.97;;;5.37;;
13943;SDS011;7044;53.286;8.534;2022-11-24T04:03:40;14.03;;;5.43;;
13943;SDS011;7044;53.286;8.534;2022-11-24T04:06:07;14.90;;;5.10;;
13943;SDS011;7044;53.286;8.534;2022-11-24T04:08:34;8.60;;;4.60;;
13943;SDS011;7044;53.286;8.534;2022-11-24T04:11:02;11.23;;;5.27;;
13943;SDS011;7044;53.286;8.534;2022-11-24T04:13:29;8.03;;;4.97;;
13943;SDS011;7044;53.286;8.534;2022-11-24T04:15:55;14.50;;;5.53;;
13943;SDS011;7044;53.286;8.534;2022-11-24T04:18:22;11.97;;;4.87;;
13943;SDS011;7044;53.286;8.534;2022-11-24T04:20:49;9.93;;;5.30;;
13943;SDS011;7044;53.286;8.534;2022-11-24T04:23:17;14.27;;;5.37;;
13943;SDS011;7044;53.286;8.534;2022-11-24T04:25:44;9.43;;;5.30;;
13943;SDS011;7044;53.286;8.534;2022-11-24T04:28:12;14.43;;;4.80;;
13943;SDS011;7044;53.286;8.534;2022-11-24T04:30:39;9.17;;;5.03;;
13943;SDS011;7044;53.286;8.534;2022-11-24T04:33:08;16.60;;;5.17;;
13943;SDS011;7044;53.286;8.534;2022-11-24T04:35:36;13.00;;;5.27;;
13943;SDS011;7044;53.286;8.534;2022-11-24T04:38:03;15.07;;;4.90;;
13943;SDS011;7044;53.286;8.534;2022-11-24T04:40:30;10.80;;;4.60;;
13943;SDS011;7044;53.286;8.534;2022-11-24T04:42:56;15.43;;;5.00;;
13943;SDS011;7044;53.286;8.534;2022-11-24T04:45:25;16.13;;;5.00;;
13943;SDS011;7044;53.286;8.534;2022-11-24T04:47:52;11.33;;;4.90;;
13943;SDS011;7044;53.286;8.534;2022-11-24T04:50:18;10.73;;;4.90;;
13943;SDS011;7044;53.286;8.534;2022-11-24T04:52:46;8.57;;;4.57;;
13943;SDS011;7044;53.286;8.534;2022-11-24T04:55:12;10.83;;;4.97;;
13943;SDS011;7044;53.286;8.534;2022-11-24T04:57:39;12.23;;;5.60;;
13943;SDS011;7044;53.286;8.534;2022-11-24T05:00:07;15.87;;;5.50;;
13943;SDS011;7044;53.286;8.534;2022-11-24T05:02:36;10.90;;;4.77;;
13943;SDS011;7044;53.286;8.534;2022-11-24T05:05:04;10.10;;;4.63;;
13943;SDS011;7044;53.286;8.534;2022-11-24T05:07:31;9.83;;;5.10;;
13943;SDS011;7044;53.286;8.534;2022-11-24T05:09:58;11.97;;;4.70;;
13943;SDS011;7044;53.286;8.534;2022-11-24T05:12:43;10.27;;;4.70;;
13943;SDS011;7044;53.286;8.534;2022-11-24T05:15:10;18.73;;;5.43;;
13943;SDS011;7044;53.286;8.534;2022-11-24T05:17:39;11.80;;;4.13;;
13943;SDS011;7044;53.286;8.534;2022-11-24T05:20:06;13.07;;;4.70;;
13943;SDS011;7044;53.286;8.534;2022-11-24T05:22:34;12.23;;;4.73;;
13943;SDS011;7044;53.286;8.534;2022-11-24T05:25:00;12.80;;;5.17;;
13943;SDS011;7044;53.286;8.534;2022-11-24T05:27:28;11.47;;;4.80;;
13943;SDS011;7044;53.286;8.534;2022-11-24T05:29:55;21.73;;;5.67;;
13943;SDS011;7044;53.286;8.534;2022-11-24T05:32:22;13.37;;;4.67;;
13943;SDS011;7044;53.286;8.534;2022-11-24T05:34:50;14.73;;;5.07;;
13943;SDS011;7044;53.286;8.534;2022-11-24T05:37:18;11.30;;;4.60;;
13943;SDS011;7044;53.286;8.534;2022-11-24T05:39:45;14.27;;;4.97;;
13943;SDS011;7044;53.286;8.534;2022-11-24T05:42:12;15.90;;;4.87;;
13943;SDS011;7044;53.286;8.534;2022-11-24T05:44:56;15.80;;;5.03;;
13943;SDS011;7044;53.286;8.534;2022-11-24T05:47:23;11.07;;;4.83;;
13943;SDS011;7044;53.286;8.534;2022-11-24T05:49:52;11.17;;;4.67;;
13943;SDS011;7044;53.286;8.534;2022-11-24T05:52:18;13.60;;;4.73;;
13943;SDS011;7044;53.286;8.534;2022-11-24T05:54:45;13.57;;;4.13;;
13943;SDS011;7044;53.286;8.534;2022-11-24T05:57:12;12.27;;;4.07;;
13943;SDS011;7044;53.286;8.534;2022-11-24T05:59:39;17.93;;;5.13;;
13943;SDS011;7044;53.286;8.534;2022-11-24T06:02:06;18.03;;;5.67;;
13943;SDS011;7044;53.286;8.534;2022-11-24T06:04:34;11.57;;;5.30;;
13943;SDS011;7044;53.286;8.534;2022-11-24T06:07:02;7.03;;;4.47;;
13943;SDS011;7044;53.286;8.534;2022-11-24T06:09:34;21.47;;;5.00;;
13943;SDS011;7044;53.286;8.534;2022-11-24T06:12:01;15.07;;;5.10;;
13943;SDS011;7044;53.286;8.534;2022-11-24T06:14:27;18.50;;;4.63;;
13943;SDS011;7044;53.286;8.534;2022-11-24T06:16:54;11.63;;;4.43;;
13943;SDS011;7044;53.286;8.534;2022-11-24T06:19:21;12.87;;;4.03;;
13943;SDS011;7044;53.286;8.534;2022-11-24T06:21:48;13.00;;;4.37;;
13943;SDS011;7044;53.286;8.534;2022-11-24T06:24:16;10.20;;;4.23;;
13943;SDS011;7044;53.286;8.534;2022-11-24T06:26:43;11.33;;;4.23;;
13943;SDS011;7044;53.286;8.534;2022-11-24T06:29:10;14.87;;;3.93;;
13943;SDS011;7044;53.286;8.534;2022-11-24T06:31:37;13.97;;;4.13;;
13943;SDS011;7044;53.286;8.534;2022-11-24T06:34:04;7.20;;;3.40;;
13943;SDS011;7044;53.286;8.534;2022-11-24T06:36:31;9.07;;;3.67;;
13943;SDS011;7044;53.286;8.534;2022-11-24T06:38:59;7.27;;;3.17;;
13943;SDS011;7044;53.286;8.534;2022-11-24T06:41:28;8.17;;;3.10;;
13943;SDS011;7044;53.286;8.534;2022-11-24T06:43:55;15.63;;;3.87;;
13943;SDS011;7044;53.286;8.534;2022-11-24T06:46:22;8.07;;;3.47;;
13943;SDS011;7044;53.286;8.534;2022-11-24T06:48:49;10.37;;;3.87;;
13943;SDS011;7044;53.286;8.534;2022-11-24T06:51:17;12.97;;;3.80;;
13943;SDS011;7044;53.286;8.534;2022-11-24T06:53:44;7.97;;;3.97;;
13943;SDS011;7044;53.286;8.534;2022-11-24T06:56:11;10.73;;;3.80;;
13943;SDS011;7044;53.286;8.534;2022-11-24T06:58:41;14.20;;;3.47;;
13943;SDS011;7044;53.286;8.534;2022-11-24T07:01:08;8.70;;;3.37;;
13943;SDS011;7044;53.286;8.534;2022-11-24T07:03:39;10.37;;;3.27;;
13943;SDS011;7044;53.286;8.534;2022-11-24T07:06:06;10.63;;;3.13;;
13943;SDS011;7044;53.286;8.534;2022-11-24T07:08:33;10.97;;;4.03;;
13943;SDS011;7044;53.286;8.534;2022-11-24T07:11:02;11.67;;;3.90;;
13943;SDS011;7044;53.286;8.534;2022-11-24T07:13:30;9.47;;;3.17;;
13943;SDS011;7044;53.286;8.534;2022-11-24T07:15:59;15.23;;;3.60;;
13943;SDS011;7044;53.286;8.534;2022-11-24T07:18:26;10.33;;;3.57;;
13943;SDS011;7044;53.286;8.534;2022-11-24T07:20:53;5.70;;;3.47;;
13943;SDS011;7044;53.286;8.534;2022-11-24T07:23:19;7.87;;;3.43;;
13943;SDS011;7044;53.286;8.534;2022-11-24T07:25:46;8.23;;;2.90;;
13943;SDS011;7044;53.286;8.534;2022-11-24T07:28:13;14.73;;;3.20;;
13943;SDS011;7044;53.286;8.534;2022-11-24T07:30:40;9.50;;;3.40;;
13943;SDS011;7044;53.286;8.534;2022-11-24T07:33:08;14.53;;;3.33;;
13943;SDS011;7044;53.286;8.534;2022-11-24T07:35:35;8.93;;;3.03;;
13943;SDS011;7044;53.286;8.534;2022-11-24T07:38:02;14.07;;;3.37;;
13943;SDS011;7044;53.286;8.534;2022-11-24T07:40:29;5.80;;;2.77;;
13943;SDS011;7044;53.286;8.534;2022-11-24T07:42:58;8.30;;;3.07;;
13943;SDS011;7044;53.286;8.534;2022-11-24T07:45:25;7.20;;;2.47;;
13943;SDS011;7044;53.286;8.534;2022-11-24T07:47:52;10.53;;;2.87;;
13943;SDS011;7044;53.286;8.534;2022-11-24T07:50:20;9.30;;;3.50;;
13943;SDS011;7044;53.286;8.534;2022-11-24T07:52:47;6.43;;;2.70;;
13943;SDS011;7044;53.286;8.534;2022-11-24T07:55:14;10.67;;;3.30;;
13943;SDS011;7044;53.286;8.534;2022-11-24T07:57:41;8.80;;;2.73;;
13943;SDS011;7044;53.286;8.534;2022-11-24T08:00:08;7.60;;;3.07;;
13943;SDS011;7044;53.286;8.534;2022-11-24T08:02:37;9.00;;;2.97;;
13943;SDS011;7044;53.286;8.534;2022-11-24T08:05:04;10.63;;;2.70;;
13943;SDS011;7044;53.286;8.534;2022-11-24T08:07:34;9.63;;;3.07;;
13943;SDS011;7044;53.286;8.534;2022-11-24T08:10:00;12.27;;;3.47;;
13943;SDS011;7044;53.286;8.534;2022-11-24T08:12:27;10.80;;;3.27;;
13943;SDS011;7044;53.286;8.534;2022-11-24T08:14:54;10.70;;;3.50;;
13943;SDS011;7044;53.286;8.534;2022-11-24T08:17:21;6.53;;;3.00;;
13943;SDS011;7044;53.286;8.534;2022-11-24T08:19:48;5.33;;;2.63;;
13943;SDS011;7044;53.286;8.534;2022-11-24T08:22:15;8.20;;;3.63;;
13943;SDS011;7044;53.286;8.534;2022-11-24T08:24:43;9.57;;;2.53;;
13943;SDS011;7044;53.286;8.534;2022-11-24T08:27:13;13.63;;;2.73;;
13943;SDS011;7044;53.286;8.534;2022-11-24T08:29:40;11.17;;;3.00;;
13943;SDS011;7044;53.286;8.534;2022-11-24T08:32:08;12.67;;;3.57;;
13943;SDS011;7044;53.286;8.534;2022-11-24T08:34:35;12.90;;;3.27;;
13943;SDS011;7044;53.286;8.534;2022-11-24T08:37:02;12.00;;;3.87;;
13943;SDS011;7044;53.286;8.534;2022-11-24T08:39:29;11.97;;;2.83;;
13943;SDS011;7044;53.286;8.534;2022-11-24T08:41:57;19.50;;;3.40;;
13943;SDS011;7044;53.286;8.534;2022-11-24T08:44:24;19.83;;;3.73;;
13943;SDS011;7044;53.286;8.534;2022-11-24T08:46:52;7.67;;;2.77;;
13943;SDS011;7044;53.286;8.534;2022-11-24T08:49:20;23.43;;;3.80;;
13943;SDS011;7044;53.286;8.534;2022-11-24T08:51:47;13.23;;;3.17;;
13943;SDS011;7044;53.286;8.534;2022-11-24T08:54:15;16.83;;;3.07;;
13943;SDS011;7044;53.286;8.534;2022-11-24T08:56:43;13.90;;;3.50;;
13943;SDS011;7044;53.286;8.534;2022-11-24T08:59:12;11.37;;;3.60;;
13943;SDS011;7044;53.286;8.534;2022-11-24T09:01:39;14.90;;;2.73;;
13943;SDS011;7044;53.286;8.534;2022-11-24T09:04:06;13.40;;;2.80;;
13943;SDS011;7044;53.286;8.534;2022-11-24T09:06:33;16.23;;;3.67;;
13943;SDS011;7044;53.286;8.534;2022-11-24T09:09:00;6.50;;;2.77;;
13943;SDS011;7044;53.286;8.534;2022-11-24T09:11:27;15.93;;;3.50;;
13943;SDS011;7044;53.286;8.534;2022-11-24T09:13:54;17.83;;;3.00;;
13943;SDS011;7044;53.286;8.534;2022-11-24T09:16:23;10.43;;;2.57;;
13943;SDS011;7044;53.286;8.534;2022-11-24T09:18:54;10.83;;;2.70;;
13943;SDS011;7044;53.286;8.534;2022-11-24T09:21:22;12.87;;;3.60;;
13943;SDS011;7044;53.286;8.534;2022-11-24T09:23:49;10.67;;;3.50;;
13943;SDS011;7044;53.286;8.534;2022-11-24T09:26:18;21.07;;;3.00;;
13943;SDS011;7044;53.286;8.534;2022-11-24T09:28:46;13.53;;;3.43;;
13943;SDS011;7044;53.286;8.534;2022-11-24T09:31:14;20.07;;;3.50;;
13943;SDS011;7044;53.286;8.534;2022-11-24T09:33:44;15.53;;;3.90;;
13943;SDS011;7044;53.286;8.534;2022-11-24T09:36:11;10.60;;;3.77;;
13943;SDS011;7044;53.286;8.534;2022-11-24T09:38:38;16.40;;;3.00;;
13943;SDS011;7044;53.286;8.534;2022-11-24T09:44:16;14.97;;;2.97;;
13943;SDS011;7044;53.286;8.534;2022-11-24T09:47:05;21.50;;;3.97;;
13943;SDS011;7044;53.286;8.534;2022-11-24T09:49:43;16.10;;;3.33;;
13943;SDS011;7044;53.286;8.534;2022-11-24T09:52:17;15.83;;;3.37;;
13943;SDS011;7044;53.286;8.534;2022-11-24T09:54:50;17.10;;;3.73;;
13943;SDS011;7044;53.286;8.534;2022-11-24T09:57:20;11.67;;;3.70;;
13943;SDS011;7044;53.286;8.534;2022-11-24T09:59:51;16.20;;;4.13;;
13943;SDS011;7044;53.286;8.534;2022-11-24T10:02:20;13.70;;;3.87;;
13943;SDS011;7044;53.286;8.534;2022-11-24T10:04:49;17.33;;;4.50;;
13943;SDS011;7044;53.286;8.534;2022-11-24T10:07:21;11.73;;;3.53;;
13943;SDS011;7044;53.286;8.534;2022-11-24T10:09:54;13.47;;;3.67;;
13943;SDS011;7044;53.286;8.534;2022-11-24T10:12:35;13.80;;;4.43;;
13943;SDS011;7044;53.286;8.534;2022-11-24T10:15:17;12.50;;;3.47;;
13943;SDS011;7044;53.286;8.534;2022-11-24T10:18:05;15.33;;;3.87;;
13943;SDS011;7044;53.286;8.534;2022-11-24T10:20:50;12.73;;;3.60;;
13943;SDS011;7044;53.286;8.534;2022-11-24T10:23:24;10.27;;;3.67;;
13943;SDS011;7044;53.286;8.534;2022-11-24T10:26:00;11.87;;;4.00;;
13943;SDS011;7044;53.286;8.534;2022-11-24T10:28:30;14.70;;;3.87;;
13943;SDS011;7044;53.286;8.534;2022-11-24T10:31:10;10.80;;;4.23;;
13943;SDS011;7044;53.286;8.534;2022-11-24T10:33:42;18.63;;;4.23;;
13943;SDS011;7044;53.286;8.534;2022-11-24T10:36:12;14.37;;;4.10;;
13943;SDS011;7044;53.286;8.534;2022-11-24T10:38:47;10.90;;;3.23;;
13943;SDS011;7044;53.286;8.534;2022-11-24T10:41:20;17.17;;;3.33;;
13943;SDS011;7044;53.286;8.534;2022-11-24T10:43:55;12.23;;;4.47;;
13943;SDS011;7044;53.286;8.534;2022-11-24T10:46:25;16.30;;;3.77;;
13943;SDS011;7044;53.286;8.534;2022-11-24T10:48:55;15.60;;;4.30;;
13943;SDS011;7044;53.286;8.534;2022-11-24T10:54:27;23.07;;;5.10;;
13943;SDS011;7044;53.286;8.534;2022-11-24T10:56:54;10.60;;;3.67;;
13943;SDS011;7044;53.286;8.534;2022-11-24T10:59:34;25.83;;;4.30;;
13943;SDS011;7044;53.286;8.534;2022-11-24T11:02:24;12.53;;;3.90;;
13943;SDS011;7044;53.286;8.534;2022-11-24T11:08:08;14.38;;;4.07;;
13943;SDS011;7044;53.286;8.534;2022-11-24T11:10:48;15.37;;;4.23;;
13943;SDS011;7044;53.286;8.534;2022-11-24T11:13:20;14.30;;;4.50;;
13943;SDS011;7044;53.286;8.534;2022-11-24T11:15:48;12.73;;;3.50;;
13943;SDS011;7044;53.286;8.534;2022-11-24T11:18:15;17.57;;;3.87;;
13943;SDS011;7044;53.286;8.534;2022-11-24T11:20:48;14.27;;;3.60;;
13943;SDS011;7044;53.286;8.534;2022-11-24T11:23:19;14.98;;;3.88;;
13943;SDS011;7044;53.286;8.534;2022-11-24T11:25:50;12.83;;;4.10;;
13943;SDS011;7044;53.286;8.534;2022-11-24T11:28:37;15.07;;;3.58;;
13943;SDS011;7044;53.286;8.534;2022-11-24T11:31:05;10.93;;;4.28;;
13943;SDS011;7044;53.286;8.534;2022-11-24T11:33:52;12.10;;;3.80;;
13943;SDS011;7044;53.286;8.534;2022-11-24T11:36:21;14.33;;;4.13;;
13943;SDS011;7044;53.286;8.534;2022-11-24T11:38:48;12.33;;;3.57;;
13943;SDS011;7044;53.286;8.534;2022-11-24T11:41:18;16.25;;;3.45;;
13943;SDS011;7044;53.286;8.534;2022-11-24T11:43:48;10.23;;;3.22;;
13943;SDS011;7044;53.286;8.534;2022-11-24T11:46:19;8.67;;;3.37;;
13943;SDS011;7044;53.286;8.534;2022-11-24T11:48:47;8.52;;;3.58;;
13943;SDS011;7044;53.286;8.534;2022-11-24T11:51:20;10.87;;;3.23;;
13943;SDS011;7044;53.286;8.534;2022-11-24T11:53:59;12.10;;;3.28;;
13943;SDS011;7044;53.286;8.534;2022-11-24T11:56:35;10.05;;;2.97;;
13943;SDS011;7044;53.286;8.534;2022-11-24T11:59:14;10.20;;;3.47;;
13943;SDS011;7044;53.286;8.534;2022-11-24T12:01:58;12.97;;;2.93;;
13943;SDS011;7044;53.286;8.534;2022-11-24T12:04:43;6.97;;;2.80;;
13943;SDS011;7044;53.286;8.534;2022-11-24T12:07:19;10.93;;;3.28;;
13943;SDS011;7044;53.286;8.534;2022-11-24T12:09:59;11.13;;;2.90;;
13943;SDS011;7044;53.286;8.534;2022-11-24T12:12:46;8.90;;;2.87;;
13943;SDS011;7044;53.286;8.534;2022-11-24T12:15:24;11.98;;;2.85;;
13943;SDS011;7044;53.286;8.534;2022-11-24T12:17:59;14.32;;;3.20;;
13943;SDS011;7044;53.286;8.534;2022-11-24T12:20:41;8.67;;;3.03;;
13943;SDS011;7044;53.286;8.534;2022-11-24T12:23:19;5.82;;;3.15;;
13943;SDS011;7044;53.286;8.534;2022-11-24T12:25:56;7.33;;;2.60;;
13943;SDS011;7044;53.286;8.534;2022-11-24T12:28:34;10.57;;;2.70;;
13943;SDS011;7044;53.286;8.534;2022-11-24T12:31:26;6.80;;;3.13;;
13943;SDS011;7044;53.286;8.534;2022-11-24T12:36:59;10.00;;;2.63;;
13943;SDS011;7044;53.286;8.534;2022-11-24T12:39:38;10.30;;;2.93;;
13943;SDS011;7044;53.286;8.534;2022-11-24T12:42:11;8.13;;;2.95;;
13943;SDS011;7044;53.286;8.534;2022-11-24T12:44:55;10.70;;;2.65;;
13943;SDS011;7044;53.286;8.534;2022-11-24T12:47:33;9.00;;;2.53;;
13943;SDS011;7044;53.286;8.534;2022-11-24T12:50:07;12.53;;;3.23;;
13943;SDS011;7044;53.286;8.534;2022-11-24T12:52:36;8.85;;;2.75;;
13943;SDS011;7044;53.286;8.534;2022-11-24T12:55:10;10.90;;;3.17;;
13943;SDS011;7044;53.286;8.534;2022-11-24T12:57:41;10.90;;;2.53;;
13943;SDS011;7044;53.286;8.534;2022-11-24T13:00:15;17.95;;;2.88;;
13943;SDS011;7044;53.286;8.534;2022-11-24T13:02:52;9.77;;;2.65;;
13943;SDS011;7044;53.286;8.534;2022-11-24T13:05:31;7.72;;;2.15;;
13943;SDS011;7044;53.286;8.534;2022-11-24T13:08:04;10.43;;;2.90;;
13943;SDS011;7044;53.286;8.534;2022-11-24T13:10:32;5.18;;;2.40;;
13943;SDS011;7044;53.286;8.534;2022-11-24T13:13:01;5.78;;;2.97;;
13943;SDS011;7044;53.286;8.534;2022-11-24T13:15:31;8.90;;;3.00;;
13943;SDS011;7044;53.286;8.534;2022-11-24T13:21:29;5.63;;;2.60;;
13943;SDS011;7044;53.286;8.534;2022-11-24T13:23:57;8.63;;;3.30;;
13943;SDS011;7044;53.286;8.534;2022-11-24T13:26:27;8.10;;;3.45;;
13943;SDS011;7044;53.286;8.534;2022-11-24T13:28:58;6.47;;;3.67;;
13943;SDS011;7044;53.286;8.534;2022-11-24T13:31:30;7.07;;;3.50;;
13943;SDS011;7044;53.286;8.534;2022-11-24T13:33:57;10.13;;;4.15;;
13943;SDS011;7044;53.286;8.534;2022-11-24T13:36:27;10.98;;;4.20;;
13943;SDS011;7044;53.286;8.534;2022-11-24T13:38:56;10.80;;;3.93;;
13943;SDS011;7044;53.286;8.534;2022-11-24T13:44:43;10.35;;;3.70;;
13943;SDS011;7044;53.286;8.534;2022-11-24T13:50:06;11.43;;;3.55;;
13943;SDS011;7044;53.286;8.534;2022-11-24T13:52:35;12.05;;;3.47;;
13943;SDS011;7044;53.286;8.534;2022-11-24T13:55:19;8.48;;;3.47;;
13943;SDS011;7044;53.286;8.534;2022-11-24T13:57:58;7.22;;;3.72;;
13943;SDS011;7044;53.286;8.534;2022-11-24T14:03:46;7.38;;;3.47;;
13943;SDS011;7044;53.286;8.534;2022-11-24T14:06:26;5.80;;;2.97;;
13943;SDS011;7044;53.286;8.534;2022-11-24T14:08:55;6.72;;;3.13;;
13943;SDS011;7044;53.286;8.534;2022-11-24T14:11:25;8.45;;;2.65;;
13943;SDS011;7044;53.286;8.534;2022-11-24T14:13:53;9.13;;;3.47;;
13943;SDS011;7044;53.286;8.534;2022-11-24T14:16:20;6.97;;;2.83;;
13943;SDS011;7044;53.286;8.534;2022-11-24T14:18:49;6.93;;;2.90;;
13943;SDS011;7044;53.286;8.534;2022-11-24T14:21:20;10.15;;;2.90;;
13943;SDS011;7044;53.286;8.534;2022-11-24T14:23:53;6.20;;;2.87;;
13943;SDS011;7044;53.286;8.534;2022-11-24T14:26:22;6.93;;;3.42;;
13943;SDS011;7044;53.286;8.534;2022-11-24T14:28:51;7.38;;;3.22;;
13943;SDS011;7044;53.286;8.534;2022-11-24T14:31:20;7.38;;;2.63;;
13943;SDS011;7044;53.286;8.534;2022-11-24T14:34:05;7.80;;;2.73;;
13943;SDS011;7044;53.286;8.534;2022-11-24T14:36:38;3.87;;;3.07;;
13943;SDS011;7044;53.286;8.534;2022-11-24T14:39:05;6.32;;;3.15;;
13943;SDS011;7044;53.286;8.534;2022-11-24T14:41:36;4.27;;;3.07;;
13943;SDS011;7044;53.286;8.534;2022-11-24T14:44:09;9.45;;;3.13;;
13943;SDS011;7044;53.286;8.534;2022-11-24T14:46:41;8.85;;;3.13;;
13943;SDS011;7044;53.286;8.534;2022-11-24T14:49:14;5.68;;;2.67;;
13943;SDS011;7044;53.286;8.534;2022-11-24T14:51:43;7.70;;;3.63;;
13943;SDS011;7044;53.286;8.534;2022-11-24T14:54:14;5.50;;;2.85;;
13943;SDS011;7044;53.286;8.534;2022-11-24T14:56:54;6.85;;;2.72;;
13943;SDS011;7044;53.286;8.534;2022-11-24T14:59:24;6.37;;;2.83;;
13943;SDS011;7044;53.286;8.534;2022-11-24T15:01:52;8.07;;;3.00;;
13943;SDS011;7044;53.286;8.534;2022-11-24T15:04:21;4.60;;;2.60;;
13943;SDS011;7044;53.286;8.534;2022-11-24T15:06:59;8.90;;;3.37;;
13943;SDS011;7044;53.286;8.534;2022-11-24T15:09:29;7.03;;;3.08;;
13943;SDS011;7044;53.286;8.534;2022-11-24T15:12:02;4.23;;;3.10;;
13943;SDS011;7044;53.286;8.534;2022-11-24T15:14:43;6.03;;;3.38;;
13943;SDS011;7044;53.286;8.534;2022-11-24T15:17:16;8.30;;;4.33;;
13943;SDS011;7044;53.286;8.534;2022-11-24T15:19:44;5.13;;;3.60;;
13943;SDS011;7044;53.286;8.534;2022-11-24T15:25:26;4.03;;;2.80;;
13943;SDS011;7044;53.286;8.534;2022-11-24T15:27:54;6.77;;;3.67;;
13943;SDS011;7044;53.286;8.534;2022-11-24T15:30:21;10.63;;;2.90;;
13943;SDS011;7044;53.286;8.534;2022-11-24T15:32:49;10.00;;;3.00;;
13943;SDS011;7044;53.286;8.534;2022-11-24T15:35:19;6.20;;;2.83;;
13943;SDS011;7044;53.286;8.534;2022-11-24T15:37:46;5.53;;;3.30;;
13943;SDS011;7044;53.286;8.534;2022-11-24T15:40:14;7.30;;;3.13;;